Time;durP1;ratioP1;P1;durP2;ratioP2;P2;SDS_P1;SDS_P2;PMS_P1;PMS_P2;Temp;Humidity;BMP_temperature;BMP_pressure;BME280_temperature;BME280_humidity;BME280_pressure;Samples;Min_cycle;Max_cycle;Signal;HPM_P1;HPM_P2
2022/11/05 00:10:25;;;;;;;1.73;1.35;;;;;;;;;;5024319;28;20068;-82
2022/11/05 00:18:22;;;;;;;2.13;1.23;;;;;;;;;;5018513;28;20069;-83
2022/11/05 00:20:49;;;;;;;1.63;1.35;;;;;;;;;;5023335;28;20022;-82
2022/11/05 00:26:01;;;;;;;1.88;1.20;;;;;;;;;;5025444;28;20049;-83
2022/11/05 00:28:28;;;;;;;1.95;1.20;;;;;;;;;;5006282;28;20030;-82
2022/11/05 00:30:54;;;;;;;1.42;1.13;;;;;;;;;;5005987;28;20049;-83
2022/11/05 00:33:20;;;;;;;1.48;1.10;;;;;;;;;;5004939;28;20022;-83
2022/11/05 00:35:46;;;;;;;2.45;1.20;;;;;;;;;;5008353;28;20022;-83
2022/11/05 00:38:12;;;;;;;1.85;1.23;;;;;;;;;;5005605;28;20133;-83
2022/11/05 00:40:38;;;;;;;1.88;1.45;;;;;;;;;;5022757;28;20479;-83
2022/11/05 00:45:49;;;;;;;4.53;1.83;;;;;;;;;;5028869;28;20041;-83
2022/11/05 00:51:00;;;;;;;2.40;1.80;;;;;;;;;;5027583;28;20052;-83
2022/11/05 00:53:26;;;;;;;3.83;1.92;;;;;;;;;;5007926;28;20068;-83
2022/11/05 00:55:52;;;;;;;2.00;1.50;;;;;;;;;;5025562;28;20041;-83
2022/11/05 00:58:19;;;;;;;4.20;1.85;;;;;;;;;;5007834;28;20133;-83
2022/11/05 01:00:48;;;;;;;2.25;1.95;;;;;;;;;;5007761;28;20030;-83
2022/11/05 01:03:15;;;;;;;2.47;1.65;;;;;;;;;;5007885;28;20028;-83
2022/11/05 01:05:42;;;;;;;2.58;1.80;;;;;;;;;;5026797;28;20125;-83
2022/11/05 01:08:09;;;;;;;3.65;1.75;;;;;;;;;;5008202;28;20360;-82
2022/11/05 01:10:39;;;;;;;1.95;1.35;;;;;;;;;;5024981;28;20038;-82
2022/11/05 01:13:05;;;;;;;1.98;1.40;;;;;;;;;;5007367;28;20049;-82
2022/11/05 01:15:31;;;;;;;2.15;1.42;;;;;;;;;;5026452;28;20077;-82
2022/11/05 01:17:57;;;;;;;2.67;1.55;;;;;;;;;;5005032;28;20049;-82
2022/11/05 01:20:23;;;;;;;2.13;1.63;;;;;;;;;;5026402;28;20029;-81
2022/11/05 01:22:49;;;;;;;2.88;1.70;;;;;;;;;;5025377;28;20112;-82
2022/11/05 01:25:16;;;;;;;2.40;1.83;;;;;;;;;;5019216;28;20049;-83
2022/11/05 01:27:42;;;;;;;2.72;1.50;;;;;;;;;;5009189;28;20187;-83
2022/11/05 01:30:08;;;;;;;1.85;1.70;;;;;;;;;;5026061;28;20034;-83
2022/11/05 01:32:35;;;;;;;2.47;1.58;;;;;;;;;;5026209;28;20157;-82
2022/11/05 01:35:01;;;;;;;2.70;1.67;;;;;;;;;;5009008;28;20088;-84
2022/11/05 01:37:27;;;;;;;1.60;1.50;;;;;;;;;;5026600;28;20022;-81
2022/11/05 01:39:53;;;;;;;3.40;2.25;;;;;;;;;;5027017;28;20034;-84
2022/11/05 01:42:21;;;;;;;2.50;1.75;;;;;;;;;;5028327;28;20025;-84
2022/11/05 01:44:56;;;;;;;1.88;1.35;;;;;;;;;;5026505;28;20026;-84
2022/11/05 01:47:28;;;;;;;2.15;1.80;;;;;;;;;;5025576;28;20037;-84
2022/11/05 01:49:54;;;;;;;1.58;1.48;;;;;;;;;;5031578;28;20033;-83
2022/11/05 01:52:21;;;;;;;2.75;1.90;;;;;;;;;;5035127;28;20046;-82
2022/11/05 01:54:47;;;;;;;4.03;1.80;;;;;;;;;;5019145;28;20025;-82
2022/11/05 01:57:14;;;;;;;2.53;1.73;;;;;;;;;;5018327;28;20036;-82
2022/11/05 01:59:42;;;;;;;5.88;1.70;;;;;;;;;;5027984;28;20034;-82
2022/11/05 02:02:08;;;;;;;5.45;1.83;;;;;;;;;;5008973;28;20037;-83
2022/11/05 02:05:01;;;;;;;2.33;1.50;;;;;;;;;;5008871;28;20030;-82
2022/11/05 02:07:27;;;;;;;2.63;1.40;;;;;;;;;;5024509;28;20383;-82
2022/11/05 02:09:56;;;;;;;3.35;1.50;;;;;;;;;;5026378;28;20084;-83
2022/11/05 02:12:23;;;;;;;2.33;1.55;;;;;;;;;;5030444;28;20101;-82
2022/11/05 02:14:49;;;;;;;2.08;1.48;;;;;;;;;;5027028;28;20026;-83
2022/11/05 02:17:15;;;;;;;2.42;1.50;;;;;;;;;;5024796;28;20045;-83
2022/11/05 02:19:41;;;;;;;3.83;2.00;;;;;;;;;;5024555;28;20506;-83
2022/11/05 02:22:16;;;;;;;2.20;1.58;;;;;;;;;;5025529;28;20080;-83
2022/11/05 02:24:51;;;;;;;1.80;1.52;;;;;;;;;;5007014;28;20037;-84
2022/11/05 02:27:38;;;;;;;1.40;1.30;;;;;;;;;;5006688;28;20033;-84
2022/11/05 02:30:23;;;;;;;1.85;1.58;;;;;;;;;;5008482;28;20038;-83
2022/11/05 02:33:18;;;;;;;1.38;1.23;;;;;;;;;;5023290;28;20017;-83
2022/11/05 02:36:02;;;;;;;2.65;1.83;;;;;;;;;;5015387;28;20034;-83
2022/11/05 02:38:35;;;;;;;3.22;1.48;;;;;;;;;;5023795;28;20124;-84
2022/11/05 02:41:01;;;;;;;2.17;1.40;;;;;;;;;;5024524;28;20061;-83
2022/11/05 02:43:42;;;;;;;6.50;2.08;;;;;;;;;;5006974;28;20034;-83
2022/11/05 02:46:14;;;;;;;3.08;1.65;;;;;;;;;;5026389;28;20025;-82
2022/11/05 02:48:55;;;;;;;1.35;1.20;;;;;;;;;;5025615;28;20081;-81
2022/11/05 02:51:32;;;;;;;1.85;1.38;;;;;;;;;;5024676;28;20021;-83
2022/11/05 02:54:06;;;;;;;2.40;1.88;;;;;;;;;;5024499;28;20442;-83
2022/11/05 02:56:33;;;;;;;2.15;1.60;;;;;;;;;;5009190;28;20022;-83
2022/11/05 02:59:00;;;;;;;2.53;1.92;;;;;;;;;;5008270;28;20106;-82
2022/11/05 03:01:26;;;;;;;3.58;1.60;;;;;;;;;;5026627;28;20453;-82
2022/11/05 03:04:03;;;;;;;2.42;1.45;;;;;;;;;;5009610;28;20204;-83
2022/11/05 03:06:44;;;;;;;1.42;1.23;;;;;;;;;;5025826;28;20380;-83
2022/11/05 03:09:20;;;;;;;3.30;1.80;;;;;;;;;;5007036;28;20032;-84
2022/11/05 03:11:54;;;;;;;2.15;1.40;;;;;;;;;;5024898;28;20471;-83
2022/11/05 03:14:39;;;;;;;2.83;1.42;;;;;;;;;;5003528;28;20030;-82
2022/11/05 03:17:10;;;;;;;1.30;1.05;;;;;;;;;;5025640;28;20046;-82
2022/11/05 03:19:42;;;;;;;1.55;1.17;;;;;;;;;;5025894;28;20033;-83
2022/11/05 03:22:11;;;;;;;2.70;1.48;;;;;;;;;;5025131;28;20061;-84
2022/11/05 03:24:40;;;;;;;4.72;1.73;;;;;;;;;;5025619;28;20439;-84
2022/11/05 03:27:08;;;;;;;1.88;1.10;;;;;;;;;;5024505;28;20620;-83
2022/11/05 03:29:37;;;;;;;2.35;1.40;;;;;;;;;;5005661;28;20045;-83
2022/11/05 03:32:04;;;;;;;2.67;1.40;;;;;;;;;;5022690;28;20026;-83
2022/11/05 03:34:32;;;;;;;2.03;1.20;;;;;;;;;;5006147;28;20026;-84
2022/11/05 03:36:59;;;;;;;1.58;1.20;;;;;;;;;;5022871;28;20018;-84
2022/11/05 03:39:30;;;;;;;2.95;1.30;;;;;;;;;;5006329;28;20121;-83
2022/11/05 03:41:57;;;;;;;2.15;1.52;;;;;;;;;;5022142;28;20025;-83
2022/11/05 03:44:25;;;;;;;3.38;1.52;;;;;;;;;;5004322;28;20026;-82
2022/11/05 03:46:53;;;;;;;2.10;1.13;;;;;;;;;;4987647;28;20027;-83
2022/11/05 03:49:21;;;;;;;3.10;1.40;;;;;;;;;;5014362;28;20034;-83
2022/11/05 03:52:05;;;;;;;1.23;0.93;;;;;;;;;;5030657;28;20033;-82
2022/11/05 03:54:32;;;;;;;1.70;1.52;;;;;;;;;;5030938;28;20026;-82
2022/11/05 03:57:14;;;;;;;2.25;1.20;;;;;;;;;;5031662;28;20022;-83
2022/11/05 03:59:42;;;;;;;4.35;1.20;;;;;;;;;;5014106;28;20038;-82
2022/11/05 04:02:09;;;;;;;2.47;1.33;;;;;;;;;;5013711;28;20040;-82
2022/11/05 04:04:35;;;;;;;2.28;1.08;;;;;;;;;;5031023;28;20090;-82
2022/11/05 04:15:15;;;;;;;2.33;1.40;;;;;;;;;;5031069;28;20113;-81
2022/11/05 04:17:41;;;;;;;2.42;1.48;;;;;;;;;;5014692;28;20034;-82
2022/11/05 04:25:44;;;;;;;1.30;1.20;;;;;;;;;;5032594;28;20080;-82
2022/11/05 04:28:11;;;;;;;3.80;1.58;;;;;;;;;;5032255;28;20045;-82
2022/11/05 04:30:37;;;;;;;1.63;1.33;;;;;;;;;;5029814;28;20048;-82
2022/11/05 04:33:07;;;;;;;1.45;1.25;;;;;;;;;;5011282;28;20072;-82
2022/11/05 04:35:41;;;;;;;3.00;1.67;;;;;;;;;;5028254;28;20131;-82
2022/11/05 04:38:11;;;;;;;3.13;1.40;;;;;;;;;;5019868;28;20057;-82
2022/11/05 04:40:38;;;;;;;1.83;1.67;;;;;;;;;;5035764;28;20075;-82
2022/11/05 04:43:04;;;;;;;3.17;1.70;;;;;;;;;;5019276;28;20034;-83
2022/11/05 04:45:33;;;;;;;3.15;1.67;;;;;;;;;;5019555;28;20026;-83
2022/11/05 04:47:59;;;;;;;2.33;1.63;;;;;;;;;;5013010;28;20033;-82
2022/11/05 04:50:25;;;;;;;1.80;1.60;;;;;;;;;;5026769;28;20030;-82
2022/11/05 04:52:51;;;;;;;2.15;1.80;;;;;;;;;;5027129;28;20045;-83
2022/11/05 04:55:17;;;;;;;1.90;1.70;;;;;;;;;;5025227;28;20029;-83
2022/11/05 04:57:46;;;;;;;2.35;1.42;;;;;;;;;;5007969;28;20061;-83
2022/11/05 05:00:12;;;;;;;1.95;1.60;;;;;;;;;;5008381;28;20451;-83
2022/11/05 05:02:38;;;;;;;4.45;1.88;;;;;;;;;;5025978;28;20399;-83
2022/11/05 05:05:05;;;;;;;2.50;1.90;;;;;;;;;;5028158;28;20022;-83
2022/11/05 05:07:31;;;;;;;2.83;1.55;;;;;;;;;;5009708;28;20034;-83
2022/11/05 05:09:57;;;;;;;4.88;2.17;;;;;;;;;;5010836;28;20056;-84
2022/11/05 05:12:23;;;;;;;1.85;1.60;;;;;;;;;;5025374;28;20034;-84
2022/11/05 05:14:49;;;;;;;1.85;1.63;;;;;;;;;;5025839;28;20022;-83
2022/11/05 05:17:16;;;;;;;2.22;1.90;;;;;;;;;;5026216;28;20036;-83
2022/11/05 05:22:27;;;;;;;3.42;2.60;;;;;;;;;;5026788;28;20044;-83
2022/11/05 05:24:54;;;;;;;5.13;2.17;;;;;;;;;;5026711;28;20025;-84
2022/11/05 05:27:21;;;;;;;3.22;2.20;;;;;;;;;;5026561;28;20080;-82
2022/11/05 05:29:47;;;;;;;2.40;1.95;;;;;;;;;;5026007;28;20033;-81
2022/11/05 05:32:14;;;;;;;2.63;2.15;;;;;;;;;;5033625;28;20034;-83
2022/11/05 05:34:40;;;;;;;3.92;2.17;;;;;;;;;;5020535;28;20041;-82
2022/11/05 05:37:06;;;;;;;1.65;1.55;;;;;;;;;;5037943;28;20045;-82
2022/11/05 05:39:32;;;;;;;2.42;2.13;;;;;;;;;;5038000;28;20045;-84
2022/11/05 05:41:58;;;;;;;2.13;1.85;;;;;;;;;;5038649;28;20020;-84
2022/11/05 05:44:24;;;;;;;2.47;1.52;;;;;;;;;;5039019;28;20033;-84
2022/11/05 05:46:53;;;;;;;2.33;1.60;;;;;;;;;;5038813;28;20018;-84
2022/11/05 05:49:19;;;;;;;2.17;1.50;;;;;;;;;;5037578;28;20073;-83
2022/11/05 05:51:47;;;;;;;2.17;1.67;;;;;;;;;;5037040;28;20037;-83
2022/11/05 05:54:13;;;;;;;3.13;2.20;;;;;;;;;;5027724;28;20034;-83
2022/11/05 05:56:39;;;;;;;3.60;2.47;;;;;;;;;;5006424;28;20057;-83
2022/11/05 05:59:06;;;;;;;4.22;2.33;;;;;;;;;;5009346;28;20029;-82
2022/11/05 06:01:32;;;;;;;5.20;2.58;;;;;;;;;;5024957;28;20034;-84
2022/11/05 06:03:58;;;;;;;3.08;2.35;;;;;;;;;;5024909;28;20525;-83
2022/11/05 06:06:24;;;;;;;2.80;2.30;;;;;;;;;;5027356;28;20034;-83
2022/11/05 06:08:50;;;;;;;4.50;2.50;;;;;;;;;;5008135;28;20041;-83
2022/11/05 06:11:16;;;;;;;3.03;2.30;;;;;;;;;;5007566;28;20050;-83
2022/11/05 06:13:42;;;;;;;3.22;2.38;;;;;;;;;;5025920;28;20075;-83
2022/11/05 06:16:08;;;;;;;3.50;2.30;;;;;;;;;;5030542;28;20010;-84
2022/11/05 06:18:35;;;;;;;3.25;2.53;;;;;;;;;;5038560;28;20029;-84
2022/11/05 06:21:09;;;;;;;4.15;2.38;;;;;;;;;;5006776;28;20026;-83
2022/11/05 06:23:35;;;;;;;4.78;2.67;;;;;;;;;;5024425;28;20503;-82
2022/11/05 06:26:02;;;;;;;3.58;3.05;;;;;;;;;;5005162;28;20040;-83
2022/11/05 06:28:29;;;;;;;3.22;2.70;;;;;;;;;;5016329;28;20030;-83
2022/11/05 06:30:55;;;;;;;3.55;2.28;;;;;;;;;;5019914;28;20085;-82
2022/11/05 06:33:21;;;;;;;6.22;3.03;;;;;;;;;;5024948;28;20010;-82
2022/11/05 06:35:47;;;;;;;3.85;2.90;;;;;;;;;;5024909;28;20052;-83
2022/11/05 06:38:13;;;;;;;4.15;3.20;;;;;;;;;;5024826;28;20030;-83
2022/11/05 06:40:39;;;;;;;3.75;3.13;;;;;;;;;;5007970;28;20042;-83
2022/11/05 06:43:05;;;;;;;3.72;2.75;;;;;;;;;;5026674;28;20033;-83
2022/11/05 06:45:31;;;;;;;4.70;2.83;;;;;;;;;;5008850;28;20033;-84
2022/11/05 06:47:58;;;;;;;4.55;2.97;;;;;;;;;;5026443;28;20018;-83
2022/11/05 06:50:25;;;;;;;3.40;2.55;;;;;;;;;;5024404;28;20036;-82
2022/11/05 06:52:55;;;;;;;2.22;2.03;;;;;;;;;;5010063;28;20033;-82
2022/11/05 06:55:22;;;;;;;4.75;4.20;;;;;;;;;;5010871;28;20037;-82
2022/11/05 06:57:48;;;;;;;5.45;3.97;;;;;;;;;;5027463;28;20078;-83
2022/11/05 07:00:15;;;;;;;4.22;3.40;;;;;;;;;;5006602;28;20444;-83
2022/11/05 07:02:41;;;;;;;3.13;2.83;;;;;;;;;;5005848;28;20061;-83
2022/11/05 07:05:09;;;;;;;4.65;3.25;;;;;;;;;;5006057;28;20026;-83
2022/11/05 07:07:36;;;;;;;3.20;2.90;;;;;;;;;;5023507;28;20026;-83
2022/11/05 07:10:02;;;;;;;9.75;3.40;;;;;;;;;;5023377;28;20033;-83
2022/11/05 07:12:28;;;;;;;3.78;3.10;;;;;;;;;;5005813;28;20025;-84
2022/11/05 07:14:54;;;;;;;3.92;3.50;;;;;;;;;;5024554;28;20357;-83
2022/11/05 07:17:20;;;;;;;3.60;2.95;;;;;;;;;;5024180;28;20025;-84
2022/11/05 07:19:46;;;;;;;3.70;3.30;;;;;;;;;;5023410;28;20036;-84
2022/11/05 07:22:12;;;;;;;3.50;2.92;;;;;;;;;;5005987;28;20025;-83
2022/11/05 07:24:38;;;;;;;3.47;3.17;;;;;;;;;;5006284;28;20069;-84
2022/11/05 07:27:04;;;;;;;2.97;2.40;;;;;;;;;;5024395;28;20030;-84
2022/11/05 07:29:30;;;;;;;3.22;2.92;;;;;;;;;;5006450;28;20511;-83
2022/11/05 07:31:56;;;;;;;3.05;2.58;;;;;;;;;;5023799;28;20363;-83
2022/11/05 07:34:22;;;;;;;3.75;3.08;;;;;;;;;;5005599;28;20037;-83
2022/11/05 07:36:48;;;;;;;4.82;3.45;;;;;;;;;;5005864;28;20037;-84
2022/11/05 07:39:14;;;;;;;5.05;2.80;;;;;;;;;;5023092;28;20018;-83
2022/11/05 07:41:40;;;;;;;6.32;3.72;;;;;;;;;;5023912;28;20430;-84
2022/11/05 07:44:07;;;;;;;3.42;2.70;;;;;;;;;;5023813;28;20387;-84
2022/11/05 07:46:33;;;;;;;3.20;2.90;;;;;;;;;;5023559;28;20037;-84
2022/11/05 07:48:59;;;;;;;3.15;2.88;;;;;;;;;;5006450;28;20037;-84
2022/11/05 07:51:25;;;;;;;3.25;2.47;;;;;;;;;;5023474;28;20033;-84
2022/11/05 07:53:51;;;;;;;2.70;1.88;;;;;;;;;;5022920;28;20495;-85
2022/11/05 07:56:17;;;;;;;3.67;2.90;;;;;;;;;;5024507;28;20037;-84
2022/11/05 07:58:43;;;;;;;4.95;3.75;;;;;;;;;;5023019;28;20041;-83
2022/11/05 08:01:09;;;;;;;3.83;2.78;;;;;;;;;;5021881;28;20467;-84
2022/11/05 08:03:35;;;;;;;3.78;2.72;;;;;;;;;;5021780;28;20030;-83
2022/11/05 08:06:01;;;;;;;2.58;2.28;;;;;;;;;;5022453;28;20386;-83
2022/11/05 08:08:27;;;;;;;4.20;3.30;;;;;;;;;;5023157;28;20057;-83
2022/11/05 08:10:53;;;;;;;4.75;3.88;;;;;;;;;;5024723;28;20125;-83
2022/11/05 08:13:19;;;;;;;5.75;3.75;;;;;;;;;;5024449;28;20026;-84
2022/11/05 08:15:45;;;;;;;3.63;3.28;;;;;;;;;;5004988;28;20033;-84
2022/11/05 08:18:13;;;;;;;4.88;3.90;;;;;;;;;;5022738;28;20550;-82
2022/11/05 08:20:40;;;;;;;5.10;4.60;;;;;;;;;;5005432;28;20097;-83
2022/11/05 08:23:06;;;;;;;5.22;4.47;;;;;;;;;;5021973;28;20030;-83
2022/11/05 08:25:35;;;;;;;4.70;4.10;;;;;;;;;;5022304;28;20102;-83
2022/11/05 08:28:05;;;;;;;5.75;5.13;;;;;;;;;;5022091;28;20057;-83
2022/11/05 08:30:31;;;;;;;5.75;4.40;;;;;;;;;;5021992;28;20018;-85
2022/11/05 08:32:58;;;;;;;6.55;4.90;;;;;;;;;;5021824;28;20056;-82
2022/11/05 08:35:25;;;;;;;7.60;5.38;;;;;;;;;;5025883;28;20049;-83
2022/11/05 08:37:55;;;;;;;6.57;5.20;;;;;;;;;;5028555;28;20093;-85
2022/11/05 08:40:21;;;;;;;6.15;5.00;;;;;;;;;;5008430;28;20026;-84
2022/11/05 08:42:47;;;;;;;7.75;5.47;;;;;;;;;;5026236;28;20036;-83
2022/11/05 08:45:13;;;;;;;5.85;5.07;;;;;;;;;;5027762;28;20041;-84
2022/11/05 08:47:39;;;;;;;6.45;4.72;;;;;;;;;;5025251;28;20026;-84
2022/11/05 08:50:05;;;;;;;6.68;4.45;;;;;;;;;;5008850;28;20238;-84
2022/11/05 08:52:32;;;;;;;5.60;4.97;;;;;;;;;;5009493;28;20021;-84
2022/11/05 08:54:58;;;;;;;6.22;5.63;;;;;;;;;;5026534;28;20029;-83
2022/11/05 08:57:24;;;;;;;8.55;5.28;;;;;;;;;;5008007;28;20030;-84
2022/11/05 08:59:50;;;;;;;6.93;5.53;;;;;;;;;;5007049;28;20034;-84
2022/11/05 09:02:16;;;;;;;6.30;5.57;;;;;;;;;;5023694;28;20033;-85
2022/11/05 09:04:42;;;;;;;7.07;4.97;;;;;;;;;;5025652;28;20030;-82
2022/11/05 09:07:08;;;;;;;6.57;5.38;;;;;;;;;;5007511;28;20026;-83
2022/11/05 09:09:34;;;;;;;7.38;6.13;;;;;;;;;;5007831;28;20093;-85
2022/11/05 09:12:00;;;;;;;8.95;5.90;;;;;;;;;;5025924;28;20022;-84
2022/11/05 09:14:26;;;;;;;6.05;5.10;;;;;;;;;;5009399;28;20080;-83
2022/11/05 09:16:53;;;;;;;5.55;4.90;;;;;;;;;;5026181;28;20026;-84
2022/11/05 09:19:19;;;;;;;6.15;5.35;;;;;;;;;;5025022;28;20037;-84
2022/11/05 09:21:45;;;;;;;5.78;4.57;;;;;;;;;;5024907;28;20030;-83
2022/11/05 09:24:11;;;;;;;6.85;4.88;;;;;;;;;;5007003;28;20038;-83
2022/11/05 09:26:37;;;;;;;8.88;5.05;;;;;;;;;;5006585;28;20041;-84
2022/11/05 09:29:03;;;;;;;6.55;4.45;;;;;;;;;;5024978;28;20030;-84
2022/11/05 09:31:29;;;;;;;8.18;5.18;;;;;;;;;;5024162;28;20456;-84
2022/11/05 09:33:55;;;;;;;6.20;5.60;;;;;;;;;;5024901;28;20092;-84
2022/11/05 09:36:21;;;;;;;5.78;4.85;;;;;;;;;;5008632;28;20026;-84
2022/11/05 09:38:47;;;;;;;5.10;4.20;;;;;;;;;;5026539;28;20018;-82
2022/11/05 09:41:26;;;;;;;4.32;3.35;;;;;;;;;;5026828;28;20025;-83
2022/11/05 09:43:57;;;;;;;3.28;2.90;;;;;;;;;;5031776;28;20373;-83
2022/11/05 09:46:24;;;;;;;3.85;2.85;;;;;;;;;;5035310;28;20044;-83
2022/11/05 09:48:54;;;;;;;2.63;2.10;;;;;;;;;;5037030;28;20014;-82
2022/11/05 09:51:21;;;;;;;2.38;1.73;;;;;;;;;;5037505;28;20022;-84
2022/11/05 09:53:48;;;;;;;2.38;1.50;;;;;;;;;;5020174;28;20096;-84
2022/11/05 09:56:20;;;;;;;4.18;1.70;;;;;;;;;;5021217;28;20044;-84
2022/11/05 09:58:48;;;;;;;1.50;1.30;;;;;;;;;;5021513;28;20030;-85
2022/11/05 10:01:19;;;;;;;1.92;1.50;;;;;;;;;;5038082;28;20038;-84
2022/11/05 10:03:47;;;;;;;2.63;1.88;;;;;;;;;;5020868;28;20049;-84
2022/11/05 10:06:19;;;;;;;3.15;1.70;;;;;;;;;;5037234;28;20425;-83
2022/11/05 10:08:46;;;;;;;1.58;1.48;;;;;;;;;;5016725;28;20030;-84
2022/11/05 10:11:17;;;;;;;4.40;1.52;;;;;;;;;;5028089;28;20029;-83
2022/11/05 10:13:45;;;;;;;1.55;1.45;;;;;;;;;;5027065;28;20030;-84
2022/11/05 10:16:20;;;;;;;1.42;1.33;;;;;;;;;;5006885;28;20029;-84
2022/11/05 10:18:48;;;;;;;1.55;1.45;;;;;;;;;;5006594;28;20034;-84
2022/11/05 10:21:16;;;;;;;1.88;1.58;;;;;;;;;;5021487;28;20038;-83
2022/11/05 10:23:42;;;;;;;2.20;1.40;;;;;;;;;;5029074;28;20042;-82
2022/11/05 10:26:13;;;;;;;2.42;1.23;;;;;;;;;;5024992;28;20029;-83
2022/11/05 10:28:40;;;;;;;2.25;1.70;;;;;;;;;;5024549;28;20037;-83
2022/11/05 10:31:13;;;;;;;3.30;1.92;;;;;;;;;;5032714;28;20034;-83
2022/11/05 10:33:42;;;;;;;4.38;2.13;;;;;;;;;;5037632;28;20018;-84
2022/11/05 10:36:21;;;;;;;5.32;2.25;;;;;;;;;;5019820;28;20034;-86
2022/11/05 10:38:47;;;;;;;2.03;1.73;;;;;;;;;;5037659;28;20029;-84
2022/11/05 10:41:34;;;;;;;2.22;2.03;;;;;;;;;;5016984;28;20037;-83
2022/11/05 10:44:00;;;;;;;3.15;2.22;;;;;;;;;;5008358;28;20061;-84
2022/11/05 10:46:43;;;;;;;2.05;1.80;;;;;;;;;;5024805;28;20032;-84
2022/11/05 10:49:17;;;;;;;3.50;2.08;;;;;;;;;;5025651;28;20487;-84
2022/11/05 10:51:44;;;;;;;2.55;1.90;;;;;;;;;;5025484;28;20033;-83
2022/11/05 10:54:20;;;;;;;3.20;2.20;;;;;;;;;;5024802;28;20025;-84
2022/11/05 10:56:46;;;;;;;3.58;3.00;;;;;;;;;;5006965;28;20091;-83
2022/11/05 10:59:26;;;;;;;2.45;2.25;;;;;;;;;;5025812;28;20010;-82
2022/11/05 11:02:16;;;;;;;2.95;2.45;;;;;;;;;;5024002;28;20108;-83
2022/11/05 11:04:42;;;;;;;3.10;2.53;;;;;;;;;;5019786;28;20040;-84
2022/11/05 11:07:19;;;;;;;3.33;2.22;;;;;;;;;;5025742;28;20026;-83
2022/11/05 11:09:47;;;;;;;2.58;2.38;;;;;;;;;;5023517;28;20092;-84
2022/11/05 11:12:26;;;;;;;2.00;1.90;;;;;;;;;;5024638;28;20033;-83
2022/11/05 11:15:01;;;;;;;4.82;1.70;;;;;;;;;;5023629;28;20053;-84
2022/11/05 11:17:28;;;;;;;2.53;2.33;;;;;;;;;;5025204;28;20041;-83
2022/11/05 11:20:21;;;;;;;2.13;1.92;;;;;;;;;;5023457;28;20495;-84
2022/11/05 11:23:07;;;;;;;2.03;1.88;;;;;;;;;;5023082;28;20046;-84
2022/11/05 11:25:39;;;;;;;2.22;1.52;;;;;;;;;;4979689;28;20077;-83
2022/11/05 11:28:05;;;;;;;;;;;;;;;;;;4998399;28;20101;-84
2022/11/05 11:30:32;;;;;;;2.50;1.65;;;;;;;;;;5016079;28;20297;-83
2022/11/05 11:33:04;;;;;;;1.67;1.58;;;;;;;;;;5003924;28;20113;-83
2022/11/05 11:35:30;;;;;;;1.60;1.50;;;;;;;;;;5023214;28;20026;-83
2022/11/05 11:37:59;;;;;;;1.92;1.75;;;;;;;;;;5024080;28;20061;-83
2022/11/05 11:40:32;;;;;;;1.92;1.35;;;;;;;;;;5023457;28;20072;-84
2022/11/05 11:43:04;;;;;;;1.10;1.00;;;;;;;;;;5020030;28;20026;-83
2022/11/05 11:45:36;;;;;;;1.48;1.38;;;;;;;;;;5023086;28;20038;-84
2022/11/05 11:48:04;;;;;;;2.13;1.90;;;;;;;;;;5023624;28;20056;-83
2022/11/05 11:50:30;;;;;;;1.38;1.27;;;;;;;;;;5025584;28;20018;-83
2022/11/05 11:53:15;;;;;;;2.20;1.65;;;;;;;;;;5024284;28;20048;-83
2022/11/05 11:55:55;;;;;;;1.92;1.48;;;;;;;;;;5024597;28;20026;-84
2022/11/05 11:58:22;;;;;;;6.22;1.58;;;;;;;;;;5005339;28;20022;-83
2022/11/05 12:01:06;;;;;;;1.50;1.40;;;;;;;;;;5024608;28;20084;-84
2022/11/05 12:03:40;;;;;;;1.75;1.55;;;;;;;;;;5004486;28;20383;-84
2022/11/05 12:06:24;;;;;;;3.10;1.20;;;;;;;;;;5005225;28;20037;-84
2022/11/05 12:08:50;;;;;;;1.83;1.48;;;;;;;;;;5022868;28;20113;-83
2022/11/05 12:11:35;;;;;;;4.40;1.95;;;;;;;;;;5022258;28;20026;-83
2022/11/05 12:14:12;;;;;;;1.58;1.48;;;;;;;;;;5005236;28;20022;-83
2022/11/05 12:16:53;;;;;;;2.15;1.75;;;;;;;;;;5023253;28;20072;-84
2022/11/05 12:19:46;;;;;;;3.30;2.15;;;;;;;;;;5005504;28;20117;-84
2022/11/05 12:22:12;;;;;;;;;;;;;;;;;;5023170;28;20083;-84
2022/11/05 12:24:58;;;;;;;2.13;1.83;;;;;;;;;;5022775;28;19989;-83
2022/11/05 12:27:54;;;;;;;2.50;2.00;;;;;;;;;;4985797;28;20317;-83
2022/11/05 12:30:21;;;;;;;2.15;1.95;;;;;;;;;;4970757;28;20042;-84
2022/11/05 12:32:53;;;;;;;2.53;2.22;;;;;;;;;;5022693;28;20041;-83
2022/11/05 12:35:19;;;;;;;;;;;;;;;;;;5023369;28;20073;-84
2022/11/05 12:38:09;;;;;;;2.88;2.67;;;;;;;;;;5025490;28;19909;-84
2022/11/05 12:41:10;;;;;;;3.47;3.00;;;;;;;;;;5012976;28;20033;-84
2022/11/05 12:43:39;;;;;;;3.58;3.28;;;;;;;;;;5007853;28;20042;-83
2022/11/05 12:46:16;;;;;;;4.60;3.05;;;;;;;;;;5006646;28;20084;-84
2022/11/05 12:49:01;;;;;;;4.00;3.60;;;;;;;;;;5016913;28;20041;-84
2022/11/05 12:51:27;;;;;;;5.43;3.65;;;;;;;;;;5009405;28;20030;-83
2022/11/05 12:53:59;;;;;;;4.35;3.85;;;;;;;;;;5027841;28;20490;-82
2022/11/05 12:56:54;;;;;;;8.23;4.25;;;;;;;;;;5008382;28;20052;-84
2022/11/05 12:59:32;;;;;;;4.07;3.78;;;;;;;;;;5017577;28;20045;-84
2022/11/05 13:02:22;;;;;;;4.35;3.40;;;;;;;;;;5028057;28;20030;-84
2022/11/05 13:04:51;;;;;;;3.40;3.10;;;;;;;;;;5020777;28;20057;-84
2022/11/05 13:07:20;;;;;;;4.20;3.00;;;;;;;;;;5025803;28;20030;-84
2022/11/05 13:09:55;;;;;;;3.70;3.10;;;;;;;;;;5027972;28;20045;-84
2022/11/05 13:12:22;;;;;;;2.72;2.47;;;;;;;;;;5031211;28;20077;-82
2022/11/05 13:14:51;;;;;;;3.20;2.70;;;;;;;;;;5032932;28;20402;-83
2022/11/05 13:17:19;;;;;;;3.63;2.80;;;;;;;;;;5031602;28;20033;-85
2022/11/05 13:19:48;;;;;;;4.05;2.88;;;;;;;;;;5033709;28;20049;-83
2022/11/05 13:22:21;;;;;;;5.10;3.10;;;;;;;;;;5032828;28;20032;-83
2022/11/05 13:24:48;;;;;;;4.95;4.00;;;;;;;;;;5016355;28;20475;-83
2022/11/05 13:27:17;;;;;;;5.50;4.68;;;;;;;;;;5033463;28;20472;-83
2022/11/05 13:29:52;;;;;;;11.57;6.53;;;;;;;;;;5032973;28;20033;-83
2022/11/05 13:32:24;;;;;;;8.07;5.07;;;;;;;;;;5015221;28;20059;-83
2022/11/05 13:35:01;;;;;;;9.20;5.65;;;;;;;;;;5032882;28;20049;-85
2022/11/05 13:40:17;;;;;;;5.22;3.35;;;;;;;;;;5032970;28;20076;-82
2022/11/05 13:43:02;;;;;;;6.07;4.10;;;;;;;;;;5015028;28;20029;-83
2022/11/05 13:45:37;;;;;;;5.72;4.00;;;;;;;;;;5033120;28;20041;-82
2022/11/05 13:48:06;;;;;;;4.30;3.03;;;;;;;;;;5030789;28;20041;-84
2022/11/05 13:50:32;;;;;;;2.92;2.65;;;;;;;;;;5032350;28;20030;-85
2022/11/05 13:53:17;;;;;;;4.22;2.83;;;;;;;;;;5032368;28;20072;-83
2022/11/05 13:56:00;;;;;;;3.65;2.70;;;;;;;;;;5014316;28;20153;-83
2022/11/05 13:58:35;;;;;;;2.65;2.40;;;;;;;;;;5015391;28;20034;-83
2022/11/05 14:01:13;;;;;;;4.07;2.95;;;;;;;;;;5028173;28;20044;-84
2022/11/05 14:03:45;;;;;;;5.85;3.55;;;;;;;;;;5027534;28;20034;-83
2022/11/05 14:06:11;;;;;;;5.53;2.80;;;;;;;;;;5008615;28;20080;-83
2022/11/05 14:08:43;;;;;;;6.57;4.88;;;;;;;;;;5025703;28;20269;-83
2022/11/05 14:11:15;;;;;;;6.97;5.07;;;;;;;;;;5027289;28;20052;-83
2022/11/05 14:13:43;;;;;;;3.92;3.47;;;;;;;;;;5021121;28;20041;-82
2022/11/05 14:16:18;;;;;;;2.83;2.53;;;;;;;;;;5011535;28;20095;-83
2022/11/05 14:18:46;;;;;;;8.10;5.80;;;;;;;;;;5027536;28;20056;-83
2022/11/05 14:21:27;;;;;;;5.00;3.80;;;;;;;;;;5029224;28;20486;-83
2022/11/05 14:23:53;;;;;;;4.70;3.65;;;;;;;;;;5026378;28;20030;-83
2022/11/05 14:26:24;;;;;;;4.32;3.13;;;;;;;;;;5008782;28;20032;-83
2022/11/05 14:29:10;;;;;;;7.13;4.75;;;;;;;;;;5026924;28;20061;-83
2022/11/05 14:31:54;;;;;;;11.70;5.57;;;;;;;;;;5019199;28;20073;-85
2022/11/05 14:34:22;;;;;;;12.52;6.47;;;;;;;;;;5026194;28;20030;-83
2022/11/05 14:37:07;;;;;;;6.10;3.45;;;;;;;;;;5025243;28;20033;-83
2022/11/05 14:39:33;;;;;;;4.03;2.30;;;;;;;;;;5008367;28;20055;-83
2022/11/05 14:42:05;;;;;;;2.83;2.47;;;;;;;;;;5024707;28;20025;-83
2022/11/05 14:44:33;;;;;;;4.35;2.22;;;;;;;;;;5024335;28;20069;-83
2022/11/05 14:47:03;;;;;;;2.50;2.25;;;;;;;;;;5006572;28;20046;-83
2022/11/05 14:49:35;;;;;;;1.98;1.10;;;;;;;;;;5023295;28;20033;-83
2022/11/05 14:52:07;;;;;;;1.88;1.30;;;;;;;;;;5023932;28;20026;-83
2022/11/05 14:54:44;;;;;;;1.13;1.00;;;;;;;;;;5026138;28;20037;-83
2022/11/05 14:57:12;;;;;;;1.35;1.25;;;;;;;;;;5024478;28;20044;-83
2022/11/05 14:59:59;;;;;;;1.75;1.45;;;;;;;;;;5007430;28;20094;-83
2022/11/05 15:02:31;;;;;;;1.73;1.23;;;;;;;;;;5023912;28;20029;-84
2022/11/05 15:05:23;;;;;;;1.90;1.42;;;;;;;;;;5022966;28;20038;-83
2022/11/05 15:07:55;;;;;;;1.48;1.38;;;;;;;;;;5001174;28;20081;-84
2022/11/05 15:10:22;;;;;;;1.58;1.48;;;;;;;;;;5022884;28;20034;-84
2022/11/05 15:12:51;;;;;;;2.72;2.03;;;;;;;;;;5024900;28;20017;-84
2022/11/05 15:15:20;;;;;;;1.55;1.45;;;;;;;;;;5006475;28;20030;-83
2022/11/05 15:17:51;;;;;;;1.70;1.60;;;;;;;;;;5005566;28;20033;-83
2022/11/05 15:20:23;;;;;;;1.63;1.52;;;;;;;;;;5024701;28;20554;-83
2022/11/05 15:22:52;;;;;;;2.85;1.90;;;;;;;;;;5024539;28;20114;-83
2022/11/05 15:25:23;;;;;;;3.72;2.20;;;;;;;;;;5023231;28;20050;-84
2022/11/05 15:28:10;;;;;;;2.80;2.55;;;;;;;;;;5024202;28;20040;-83
2022/11/05 15:30:36;;;;;;;3.70;2.33;;;;;;;;;;5023863;28;20038;-83
2022/11/05 15:33:18;;;;;;;2.10;1.90;;;;;;;;;;5021679;28;20026;-83
2022/11/05 15:35:44;;;;;;;4.70;2.67;;;;;;;;;;5003646;28;20033;-83
2022/11/05 15:38:26;;;;;;;4.30;2.47;;;;;;;;;;5003612;28;20029;-83
2022/11/05 15:41:00;;;;;;;4.90;2.40;;;;;;;;;;5022578;28;20026;-83
2022/11/05 15:43:26;;;;;;;3.38;2.38;;;;;;;;;;5024497;28;20069;-84